sensor_id;sensor_type;location;lat;lon;timestamp;P1;durP1;ratioP1;P2;durP2;ratioP2
25913;SDS011;13718;50.922;5.346;2022-10-31T00:00:44;60.80;;;25.02;;
25913;SDS011;13718;50.922;5.346;2022-10-31T00:03:11;59.22;;;24.50;;
25913;SDS011;13718;50.922;5.346;2022-10-31T00:05:39;55.20;;;23.08;;
25913;SDS011;13718;50.922;5.346;2022-10-31T00:08:10;58.25;;;24.17;;
25913;SDS011;13718;50.922;5.346;2022-10-31T00:10:38;51.13;;;23.80;;
25913;SDS011;13718;50.922;5.346;2022-10-31T00:13:07;52.55;;;23.60;;
25913;SDS011;13718;50.922;5.346;2022-10-31T00:15:34;51.10;;;24.13;;
25913;SDS011;13718;50.922;5.346;2022-10-31T00:18:00;58.47;;;24.83;;
25913;SDS011;13718;50.922;5.346;2022-10-31T00:20:26;51.22;;;22.75;;
25913;SDS011;13718;50.922;5.346;2022-10-31T00:22:52;52.60;;;23.70;;
25913;SDS011;13718;50.922;5.346;2022-10-31T00:25:17;53.92;;;23.55;;
25913;SDS011;13718;50.922;5.346;2022-10-31T00:27:43;51.47;;;23.27;;
25913;SDS011;13718;50.922;5.346;2022-10-31T00:30:08;57.08;;;25.40;;
25913;SDS011;13718;50.922;5.346;2022-10-31T00:32:34;58.92;;;25.58;;
25913;SDS011;13718;50.922;5.346;2022-10-31T00:35:00;60.85;;;25.90;;
25913;SDS011;13718;50.922;5.346;2022-10-31T00:37:26;61.22;;;26.02;;
25913;SDS011;13718;50.922;5.346;2022-10-31T00:39:51;54.78;;;25.50;;
25913;SDS011;13718;50.922;5.346;2022-10-31T00:42:17;62.33;;;24.73;;
25913;SDS011;13718;50.922;5.346;2022-10-31T00:44:43;56.13;;;23.85;;
25913;SDS011;13718;50.922;5.346;2022-10-31T00:47:08;55.15;;;25.25;;
25913;SDS011;13718;50.922;5.346;2022-10-31T00:49:34;57.90;;;25.05;;
25913;SDS011;13718;50.922;5.346;2022-10-31T00:51:59;58.70;;;25.65;;
25913;SDS011;13718;50.922;5.346;2022-10-31T00:54:25;58.95;;;25.23;;
25913;SDS011;13718;50.922;5.346;2022-10-31T00:56:50;66.78;;;25.42;;
25913;SDS011;13718;50.922;5.346;2022-10-31T00:59:16;56.63;;;25.38;;
25913;SDS011;13718;50.922;5.346;2022-10-31T01:01:41;55.53;;;24.13;;
25913;SDS011;13718;50.922;5.346;2022-10-31T01:04:07;60.90;;;24.75;;
25913;SDS011;13718;50.922;5.346;2022-10-31T01:06:33;62.28;;;25.05;;
25913;SDS011;13718;50.922;5.346;2022-10-31T01:08:58;57.17;;;24.15;;
25913;SDS011;13718;50.922;5.346;2022-10-31T01:11:24;62.40;;;25.75;;
25913;SDS011;13718;50.922;5.346;2022-10-31T01:13:50;58.20;;;25.00;;
25913;SDS011;13718;50.922;5.346;2022-10-31T01:16:18;59.20;;;24.55;;
25913;SDS011;13718;50.922;5.346;2022-10-31T01:18:45;57.92;;;24.45;;
25913;SDS011;13718;50.922;5.346;2022-10-31T01:21:12;67.10;;;25.55;;
25913;SDS011;13718;50.922;5.346;2022-10-31T01:23:42;62.20;;;24.70;;
25913;SDS011;13718;50.922;5.346;2022-10-31T01:26:18;56.75;;;24.45;;
25913;SDS011;13718;50.922;5.346;2022-10-31T01:28:50;53.75;;;23.67;;
25913;SDS011;13718;50.922;5.346;2022-10-31T01:31:21;53.92;;;22.88;;
25913;SDS011;13718;50.922;5.346;2022-10-31T01:33:48;57.40;;;24.10;;
25913;SDS011;13718;50.922;5.346;2022-10-31T01:38:47;62.33;;;23.83;;
25913;SDS011;13718;50.922;5.346;2022-10-31T01:41:15;58.33;;;24.85;;
25913;SDS011;13718;50.922;5.346;2022-10-31T01:46:11;51.72;;;23.50;;
25913;SDS011;13718;50.922;5.346;2022-10-31T01:48:37;55.67;;;25.27;;
25913;SDS011;13718;50.922;5.346;2022-10-31T01:51:05;57.92;;;24.20;;
25913;SDS011;13718;50.922;5.346;2022-10-31T01:53:32;66.13;;;23.95;;
25913;SDS011;13718;50.922;5.346;2022-10-31T01:55:58;58.58;;;22.15;;
25913;SDS011;13718;50.922;5.346;2022-10-31T01:58:25;60.97;;;23.60;;
25913;SDS011;13718;50.922;5.346;2022-10-31T02:00:54;54.53;;;23.08;;
25913;SDS011;13718;50.922;5.346;2022-10-31T02:03:23;59.78;;;22.83;;
25913;SDS011;13718;50.922;5.346;2022-10-31T02:05:50;61.85;;;24.17;;
25913;SDS011;13718;50.922;5.346;2022-10-31T02:10:50;59.42;;;24.42;;
25913;SDS011;13718;50.922;5.346;2022-10-31T02:13:17;50.95;;;22.70;;
25913;SDS011;13718;50.922;5.346;2022-10-31T02:15:45;53.95;;;23.23;;
25913;SDS011;13718;50.922;5.346;2022-10-31T02:18:14;54.95;;;23.02;;
25913;SDS011;13718;50.922;5.346;2022-10-31T02:23:42;59.22;;;22.35;;
25913;SDS011;13718;50.922;5.346;2022-10-31T02:32:08;56.05;;;23.80;;
25913;SDS011;13718;50.922;5.346;2022-10-31T02:34:44;68.53;;;26.02;;
25913;SDS011;13718;50.922;5.346;2022-10-31T02:40:25;62.45;;;23.52;;
25913;SDS011;13718;50.922;5.346;2022-10-31T02:46:00;67.05;;;24.85;;
25913;SDS011;13718;50.922;5.346;2022-10-31T02:48:47;53.75;;;24.00;;
25913;SDS011;13718;50.922;5.346;2022-10-31T02:51:15;66.15;;;23.90;;
25913;SDS011;13718;50.922;5.346;2022-10-31T02:53:42;53.17;;;22.55;;
25913;SDS011;13718;50.922;5.346;2022-10-31T02:58:40;57.35;;;23.27;;
25913;SDS011;13718;50.922;5.346;2022-10-31T03:01:39;57.08;;;22.92;;
25913;SDS011;13718;50.922;5.346;2022-10-31T03:04:30;61.95;;;23.20;;
25913;SDS011;13718;50.922;5.346;2022-10-31T03:13:05;55.53;;;22.70;;
25913;SDS011;13718;50.922;5.346;2022-10-31T03:15:43;50.90;;;22.75;;
25913;SDS011;13718;50.922;5.346;2022-10-31T03:18:32;53.80;;;22.15;;
25913;SDS011;13718;50.922;5.346;2022-10-31T03:21:06;54.72;;;22.50;;
25913;SDS011;13718;50.922;5.346;2022-10-31T03:23:39;51.28;;;21.00;;
25913;SDS011;13718;50.922;5.346;2022-10-31T03:26:07;57.92;;;22.92;;
25913;SDS011;13718;50.922;5.346;2022-10-31T03:28:38;63.05;;;23.27;;
25913;SDS011;13718;50.922;5.346;2022-10-31T03:31:25;52.65;;;21.73;;
25913;SDS011;13718;50.922;5.346;2022-10-31T03:33:56;60.40;;;23.13;;
25913;SDS011;13718;50.922;5.346;2022-10-31T03:36:24;56.70;;;21.98;;
25913;SDS011;13718;50.922;5.346;2022-10-31T03:38:52;57.38;;;23.48;;
25913;SDS011;13718;50.922;5.346;2022-10-31T03:41:20;56.03;;;22.00;;
25913;SDS011;13718;50.922;5.346;2022-10-31T03:43:52;50.08;;;21.70;;
25913;SDS011;13718;50.922;5.346;2022-10-31T03:46:27;57.25;;;22.23;;
25913;SDS011;13718;50.922;5.346;2022-10-31T03:48:53;49.67;;;21.67;;
25913;SDS011;13718;50.922;5.346;2022-10-31T03:51:24;55.47;;;22.13;;
25913;SDS011;13718;50.922;5.346;2022-10-31T03:54:21;48.10;;;21.10;;
25913;SDS011;13718;50.922;5.346;2022-10-31T03:56:55;49.97;;;20.92;;
25913;SDS011;13718;50.922;5.346;2022-10-31T03:59:29;58.22;;;22.15;;
25913;SDS011;13718;50.922;5.346;2022-10-31T04:02:05;46.95;;;20.27;;
25913;SDS011;13718;50.922;5.346;2022-10-31T04:04:35;49.45;;;20.58;;
25913;SDS011;13718;50.922;5.346;2022-10-31T04:07:02;53.50;;;21.42;;
25913;SDS011;13718;50.922;5.346;2022-10-31T04:09:31;58.60;;;22.60;;
25913;SDS011;13718;50.922;5.346;2022-10-31T04:12:00;53.80;;;21.02;;
25913;SDS011;13718;50.922;5.346;2022-10-31T04:14:30;55.90;;;21.73;;
25913;SDS011;13718;50.922;5.346;2022-10-31T04:16:57;51.08;;;22.02;;
25913;SDS011;13718;50.922;5.346;2022-10-31T04:19:24;47.47;;;21.30;;
25913;SDS011;13718;50.922;5.346;2022-10-31T04:21:50;47.90;;;20.70;;
25913;SDS011;13718;50.922;5.346;2022-10-31T04:24:16;50.10;;;23.45;;
25913;SDS011;13718;50.922;5.346;2022-10-31T04:26:41;54.22;;;21.60;;
25913;SDS011;13718;50.922;5.346;2022-10-31T04:29:07;52.85;;;22.23;;
25913;SDS011;13718;50.922;5.346;2022-10-31T04:31:32;59.45;;;22.08;;
25913;SDS011;13718;50.922;5.346;2022-10-31T04:33:58;58.60;;;24.40;;
25913;SDS011;13718;50.922;5.346;2022-10-31T04:36:23;59.47;;;24.25;;
25913;SDS011;13718;50.922;5.346;2022-10-31T04:38:49;65.07;;;25.52;;
25913;SDS011;13718;50.922;5.346;2022-10-31T04:41:15;62.53;;;25.65;;
25913;SDS011;13718;50.922;5.346;2022-10-31T04:43:40;65.85;;;24.88;;
25913;SDS011;13718;50.922;5.346;2022-10-31T04:46:06;61.05;;;23.83;;
25913;SDS011;13718;50.922;5.346;2022-10-31T04:48:31;59.63;;;23.08;;
25913;SDS011;13718;50.922;5.346;2022-10-31T04:51:00;61.25;;;23.13;;
25913;SDS011;13718;50.922;5.346;2022-10-31T04:53:27;63.33;;;23.70;;
25913;SDS011;13718;50.922;5.346;2022-10-31T04:55:53;59.47;;;23.05;;
25913;SDS011;13718;50.922;5.346;2022-10-31T04:58:19;56.25;;;22.73;;
25913;SDS011;13718;50.922;5.346;2022-10-31T05:00:44;58.88;;;24.38;;
25913;SDS011;13718;50.922;5.346;2022-10-31T05:03:10;57.92;;;21.50;;
25913;SDS011;13718;50.922;5.346;2022-10-31T05:05:36;52.47;;;22.85;;
25913;SDS011;13718;50.922;5.346;2022-10-31T05:08:01;57.80;;;22.35;;
25913;SDS011;13718;50.922;5.346;2022-10-31T05:10:28;58.00;;;22.15;;
25913;SDS011;13718;50.922;5.346;2022-10-31T05:12:55;55.15;;;22.02;;
25913;SDS011;13718;50.922;5.346;2022-10-31T05:15:23;50.55;;;20.38;;
25913;SDS011;13718;50.922;5.346;2022-10-31T05:17:51;54.83;;;21.67;;
25913;SDS011;13718;50.922;5.346;2022-10-31T05:20:17;57.20;;;22.00;;
25913;SDS011;13718;50.922;5.346;2022-10-31T05:22:45;53.60;;;22.65;;
25913;SDS011;13718;50.922;5.346;2022-10-31T05:25:12;56.30;;;21.55;;
25913;SDS011;13718;50.922;5.346;2022-10-31T05:27:41;51.08;;;21.48;;
25913;SDS011;13718;50.922;5.346;2022-10-31T05:30:09;60.70;;;21.83;;
25913;SDS011;13718;50.922;5.346;2022-10-31T05:32:40;52.83;;;22.00;;
25913;SDS011;13718;50.922;5.346;2022-10-31T05:35:07;59.80;;;22.98;;
25913;SDS011;13718;50.922;5.346;2022-10-31T05:37:35;56.95;;;22.40;;
25913;SDS011;13718;50.922;5.346;2022-10-31T05:40:02;60.70;;;22.92;;
25913;SDS011;13718;50.922;5.346;2022-10-31T05:42:29;61.03;;;21.95;;
25913;SDS011;13718;50.922;5.346;2022-10-31T05:44:54;56.75;;;22.33;;
25913;SDS011;13718;50.922;5.346;2022-10-31T05:47:20;56.20;;;22.92;;
25913;SDS011;13718;50.922;5.346;2022-10-31T05:49:45;52.17;;;21.25;;
25913;SDS011;13718;50.922;5.346;2022-10-31T05:52:11;48.85;;;20.48;;
25913;SDS011;13718;50.922;5.346;2022-10-31T05:54:36;57.20;;;23.48;;
25913;SDS011;13718;50.922;5.346;2022-10-31T05:57:02;59.45;;;22.25;;
25913;SDS011;13718;50.922;5.346;2022-10-31T05:59:28;61.03;;;23.35;;
25913;SDS011;13718;50.922;5.346;2022-10-31T06:01:53;62.25;;;23.80;;
25913;SDS011;13718;50.922;5.346;2022-10-31T06:04:19;64.35;;;23.35;;
25913;SDS011;13718;50.922;5.346;2022-10-31T06:06:44;59.55;;;23.10;;
25913;SDS011;13718;50.922;5.346;2022-10-31T06:09:10;62.95;;;23.17;;
25913;SDS011;13718;50.922;5.346;2022-10-31T06:11:36;61.95;;;23.98;;
25913;SDS011;13718;50.922;5.346;2022-10-31T06:14:01;49.83;;;22.33;;
25913;SDS011;13718;50.922;5.346;2022-10-31T06:16:27;59.30;;;22.90;;
25913;SDS011;13718;50.922;5.346;2022-10-31T06:18:53;56.15;;;22.02;;
25913;SDS011;13718;50.922;5.346;2022-10-31T06:21:18;51.60;;;21.10;;
25913;SDS011;13718;50.922;5.346;2022-10-31T06:23:44;60.33;;;22.92;;
25913;SDS011;13718;50.922;5.346;2022-10-31T06:26:09;57.10;;;20.60;;
25913;SDS011;13718;50.922;5.346;2022-10-31T06:28:35;54.60;;;20.80;;
25913;SDS011;13718;50.922;5.346;2022-10-31T06:31:01;57.13;;;22.40;;
25913;SDS011;13718;50.922;5.346;2022-10-31T06:33:26;64.03;;;22.77;;
25913;SDS011;13718;50.922;5.346;2022-10-31T06:35:52;59.58;;;22.35;;
25913;SDS011;13718;50.922;5.346;2022-10-31T06:38:17;57.50;;;22.02;;
25913;SDS011;13718;50.922;5.346;2022-10-31T06:40:43;47.65;;;21.10;;
25913;SDS011;13718;50.922;5.346;2022-10-31T06:43:08;56.42;;;21.67;;
25913;SDS011;13718;50.922;5.346;2022-10-31T06:45:36;50.97;;;20.95;;
25913;SDS011;13718;50.922;5.346;2022-10-31T06:48:02;51.15;;;22.05;;
25913;SDS011;13718;50.922;5.346;2022-10-31T06:50:27;55.05;;;23.08;;
25913;SDS011;13718;50.922;5.346;2022-10-31T06:52:54;62.28;;;22.85;;
25913;SDS011;13718;50.922;5.346;2022-10-31T06:55:23;53.88;;;21.52;;
25913;SDS011;13718;50.922;5.346;2022-10-31T06:57:59;54.35;;;21.58;;
25913;SDS011;13718;50.922;5.346;2022-10-31T07:00:26;54.50;;;21.17;;
25913;SDS011;13718;50.922;5.346;2022-10-31T07:02:57;59.17;;;22.05;;
25913;SDS011;13718;50.922;5.346;2022-10-31T07:05:24;58.45;;;22.55;;
25913;SDS011;13718;50.922;5.346;2022-10-31T07:07:57;56.63;;;22.05;;
25913;SDS011;13718;50.922;5.346;2022-10-31T07:10:29;56.05;;;21.48;;
25913;SDS011;13718;50.922;5.346;2022-10-31T07:12:57;57.17;;;22.10;;
25913;SDS011;13718;50.922;5.346;2022-10-31T07:15:24;58.63;;;21.88;;
25913;SDS011;13718;50.922;5.346;2022-10-31T07:17:50;58.05;;;21.83;;
25913;SDS011;13718;50.922;5.346;2022-10-31T07:20:15;53.85;;;20.88;;
25913;SDS011;13718;50.922;5.346;2022-10-31T07:22:42;62.25;;;22.42;;
25913;SDS011;13718;50.922;5.346;2022-10-31T07:25:07;56.55;;;20.85;;
25913;SDS011;13718;50.922;5.346;2022-10-31T07:27:40;55.40;;;21.40;;
25913;SDS011;13718;50.922;5.346;2022-10-31T07:30:07;55.45;;;22.20;;
25913;SDS011;13718;50.922;5.346;2022-10-31T07:32:42;56.38;;;21.73;;
25913;SDS011;13718;50.922;5.346;2022-10-31T07:35:10;48.83;;;20.92;;
25913;SDS011;13718;50.922;5.346;2022-10-31T07:37:37;53.38;;;21.02;;
25913;SDS011;13718;50.922;5.346;2022-10-31T07:40:03;57.00;;;22.35;;
25913;SDS011;13718;50.922;5.346;2022-10-31T07:42:36;57.28;;;22.40;;
25913;SDS011;13718;50.922;5.346;2022-10-31T07:45:04;50.53;;;22.42;;
25913;SDS011;13718;50.922;5.346;2022-10-31T07:47:37;57.88;;;21.42;;
25913;SDS011;13718;50.922;5.346;2022-10-31T07:50:07;54.72;;;21.98;;
25913;SDS011;13718;50.922;5.346;2022-10-31T07:52:34;49.78;;;22.00;;
25913;SDS011;13718;50.922;5.346;2022-10-31T07:55:00;59.17;;;21.10;;
25913;SDS011;13718;50.922;5.346;2022-10-31T07:57:26;63.58;;;22.77;;
25913;SDS011;13718;50.922;5.346;2022-10-31T07:59:51;54.97;;;21.75;;
25913;SDS011;13718;50.922;5.346;2022-10-31T08:02:17;53.70;;;22.90;;
25913;SDS011;13718;50.922;5.346;2022-10-31T08:04:43;49.08;;;21.15;;
25913;SDS011;13718;50.922;5.346;2022-10-31T08:07:08;48.75;;;21.17;;
25913;SDS011;13718;50.922;5.346;2022-10-31T08:09:34;55.50;;;22.40;;
25913;SDS011;13718;50.922;5.346;2022-10-31T08:11:59;56.85;;;21.90;;
25913;SDS011;13718;50.922;5.346;2022-10-31T08:14:26;54.97;;;21.02;;
25913;SDS011;13718;50.922;5.346;2022-10-31T08:16:52;50.97;;;21.17;;
25913;SDS011;13718;50.922;5.346;2022-10-31T08:19:18;49.17;;;20.52;;
25913;SDS011;13718;50.922;5.346;2022-10-31T08:21:44;53.05;;;22.05;;
25913;SDS011;13718;50.922;5.346;2022-10-31T08:24:09;53.05;;;22.23;;
25913;SDS011;13718;50.922;5.346;2022-10-31T08:26:35;53.95;;;22.17;;
25913;SDS011;13718;50.922;5.346;2022-10-31T08:29:00;51.30;;;22.35;;
25913;SDS011;13718;50.922;5.346;2022-10-31T08:31:27;52.10;;;22.30;;
25913;SDS011;13718;50.922;5.346;2022-10-31T08:33:53;51.17;;;22.02;;
25913;SDS011;13718;50.922;5.346;2022-10-31T08:36:19;53.67;;;21.35;;
25913;SDS011;13718;50.922;5.346;2022-10-31T08:38:48;51.45;;;21.33;;
25913;SDS011;13718;50.922;5.346;2022-10-31T08:41:14;50.00;;;20.75;;
25913;SDS011;13718;50.922;5.346;2022-10-31T08:43:40;46.05;;;21.23;;
25913;SDS011;13718;50.922;5.346;2022-10-31T08:46:05;50.38;;;20.48;;
25913;SDS011;13718;50.922;5.346;2022-10-31T08:48:31;47.17;;;20.27;;
25913;SDS011;13718;50.922;5.346;2022-10-31T08:50:58;44.70;;;20.10;;
25913;SDS011;13718;50.922;5.346;2022-10-31T08:53:24;52.22;;;21.67;;
25913;SDS011;13718;50.922;5.346;2022-10-31T08:55:50;40.15;;;19.23;;
25913;SDS011;13718;50.922;5.346;2022-10-31T08:58:19;49.88;;;21.02;;
25913;SDS011;13718;50.922;5.346;2022-10-31T09:00:45;48.08;;;20.92;;
25913;SDS011;13718;50.922;5.346;2022-10-31T09:03:13;50.50;;;21.00;;
25913;SDS011;13718;50.922;5.346;2022-10-31T09:05:41;51.88;;;20.92;;
25913;SDS011;13718;50.922;5.346;2022-10-31T09:08:07;46.13;;;20.50;;
25913;SDS011;13718;50.922;5.346;2022-10-31T09:10:34;47.10;;;20.88;;
25913;SDS011;13718;50.922;5.346;2022-10-31T09:13:02;46.78;;;20.50;;
25913;SDS011;13718;50.922;5.346;2022-10-31T09:15:33;49.72;;;20.50;;
25913;SDS011;13718;50.922;5.346;2022-10-31T09:18:03;47.88;;;20.58;;
25913;SDS011;13718;50.922;5.346;2022-10-31T09:20:33;44.05;;;19.40;;
25913;SDS011;13718;50.922;5.346;2022-10-31T09:23:04;44.80;;;20.02;;
25913;SDS011;13718;50.922;5.346;2022-10-31T09:25:36;45.85;;;20.15;;
25913;SDS011;13718;50.922;5.346;2022-10-31T09:28:03;52.83;;;20.23;;
25913;SDS011;13718;50.922;5.346;2022-10-31T09:30:31;47.40;;;19.70;;
25913;SDS011;13718;50.922;5.346;2022-10-31T09:32:58;45.30;;;19.90;;
25913;SDS011;13718;50.922;5.346;2022-10-31T09:35:28;44.97;;;19.88;;
25913;SDS011;13718;50.922;5.346;2022-10-31T09:37:58;41.50;;;18.40;;
25913;SDS011;13718;50.922;5.346;2022-10-31T09:43:52;45.15;;;19.40;;
25913;SDS011;13718;50.922;5.346;2022-10-31T09:46:33;47.25;;;19.77;;
25913;SDS011;13718;50.922;5.346;2022-10-31T09:52:22;43.75;;;19.80;;
25913;SDS011;13718;50.922;5.346;2022-10-31T09:54:55;46.50;;;19.40;;
25913;SDS011;13718;50.922;5.346;2022-10-31T09:57:49;40.88;;;19.33;;
25913;SDS011;13718;50.922;5.346;2022-10-31T10:00:16;50.60;;;20.50;;
25913;SDS011;13718;50.922;5.346;2022-10-31T10:02:48;45.75;;;19.42;;
25913;SDS011;13718;50.922;5.346;2022-10-31T10:08:26;41.58;;;18.83;;
25913;SDS011;13718;50.922;5.346;2022-10-31T10:10:56;39.10;;;17.58;;
25913;SDS011;13718;50.922;5.346;2022-10-31T10:27:58;42.65;;;18.35;;
25913;SDS011;13718;50.922;5.346;2022-10-31T10:30:11;48.80;;;19.05;;
25913;SDS011;13718;50.922;5.346;2022-10-31T10:32:47;48.13;;;18.00;;
25913;SDS011;13718;50.922;5.346;2022-10-31T10:35:27;38.88;;;17.60;;
25913;SDS011;13718;50.922;5.346;2022-10-31T10:37:58;47.92;;;17.42;;
25913;SDS011;13718;50.922;5.346;2022-10-31T10:40:41;41.63;;;16.88;;
25913;SDS011;13718;50.922;5.346;2022-10-31T10:51:50;41.30;;;16.05;;
25913;SDS011;13718;50.922;5.346;2022-10-31T10:57:27;34.25;;;15.80;;
25913;SDS011;13718;50.922;5.346;2022-10-31T11:00:21;35.05;;;16.75;;
25913;SDS011;13718;50.922;5.346;2022-10-31T11:02:49;38.17;;;16.08;;
25913;SDS011;13718;50.922;5.346;2022-10-31T11:05:22;36.47;;;16.10;;
25913;SDS011;13718;50.922;5.346;2022-10-31T11:07:48;37.13;;;16.73;;
25913;SDS011;13718;50.922;5.346;2022-10-31T11:10:14;37.53;;;16.27;;
25913;SDS011;13718;50.922;5.346;2022-10-31T11:12:41;42.72;;;16.30;;
25913;SDS011;13718;50.922;5.346;2022-10-31T11:15:19;38.80;;;15.50;;
25913;SDS011;13718;50.922;5.346;2022-10-31T11:17:51;35.92;;;15.40;;
25913;SDS011;13718;50.922;5.346;2022-10-31T11:22:44;37.08;;;14.50;;
25913;SDS011;13718;50.922;5.346;2022-10-31T11:25:20;35.10;;;14.73;;
25913;SDS011;13718;50.922;5.346;2022-10-31T11:28:03;40.55;;;14.98;;
25913;SDS011;13718;50.922;5.346;2022-10-31T11:35:51;31.85;;;13.70;;
25913;SDS011;13718;50.922;5.346;2022-10-31T11:38:18;29.52;;;13.00;;
25913;SDS011;13718;50.922;5.346;2022-10-31T11:40:52;30.02;;;12.48;;
25913;SDS011;13718;50.922;5.346;2022-10-31T11:43:20;31.77;;;12.73;;
25913;SDS011;13718;50.922;5.346;2022-10-31T11:45:46;27.33;;;13.43;;
25913;SDS011;13718;50.922;5.346;2022-10-31T11:48:15;26.88;;;11.98;;
25913;SDS011;13718;50.922;5.346;2022-10-31T11:50:50;28.15;;;12.27;;
25913;SDS011;13718;50.922;5.346;2022-10-31T11:53:26;31.67;;;12.60;;
25913;SDS011;13718;50.922;5.346;2022-10-31T11:56:01;31.58;;;12.75;;
25913;SDS011;13718;50.922;5.346;2022-10-31T11:58:28;28.88;;;11.80;;
25913;SDS011;13718;50.922;5.346;2022-10-31T12:00:55;26.20;;;11.93;;
25913;SDS011;13718;50.922;5.346;2022-10-31T12:05:49;27.05;;;12.15;;
25913;SDS011;13718;50.922;5.346;2022-10-31T12:08:36;30.67;;;10.82;;
25913;SDS011;13718;50.922;5.346;2022-10-31T12:16:36;30.25;;;10.65;;
25913;SDS011;13718;50.922;5.346;2022-10-31T12:19:23;26.98;;;10.93;;
25913;SDS011;13718;50.922;5.346;2022-10-31T12:26:54;25.15;;;10.85;;
25913;SDS011;13718;50.922;5.346;2022-10-31T12:35:17;35.67;;;10.88;;
25913;SDS011;13718;50.922;5.346;2022-10-31T12:45:54;27.20;;;10.05;;
25913;SDS011;13718;50.922;5.346;2022-10-31T12:50:56;31.13;;;11.02;;
25913;SDS011;13718;50.922;5.346;2022-10-31T12:56:19;29.33;;;11.33;;
25913;SDS011;13718;50.922;5.346;2022-10-31T12:58:47;29.25;;;10.68;;
25913;SDS011;13718;50.922;5.346;2022-10-31T13:01:31;25.23;;;10.60;;
25913;SDS011;13718;50.922;5.346;2022-10-31T13:06:36;24.10;;;10.73;;
25913;SDS011;13718;50.922;5.346;2022-10-31T13:09:17;28.42;;;12.00;;
25913;SDS011;13718;50.922;5.346;2022-10-31T13:11:51;25.88;;;11.73;;
25913;SDS011;13718;50.922;5.346;2022-10-31T13:16:51;49.58;;;12.07;;
25913;SDS011;13718;50.922;5.346;2022-10-31T13:19:20;21.67;;;10.07;;
25913;SDS011;13718;50.922;5.346;2022-10-31T13:27:30;26.83;;;10.95;;
25913;SDS011;13718;50.922;5.346;2022-10-31T13:32:41;28.92;;;10.38;;
25913;SDS011;13718;50.922;5.346;2022-10-31T13:40:36;24.92;;;10.85;;
25913;SDS011;13718;50.922;5.346;2022-10-31T13:45:53;29.55;;;10.65;;
25913;SDS011;13718;50.922;5.346;2022-10-31T13:48:32;33.53;;;11.52;;
25913;SDS011;13718;50.922;5.346;2022-10-31T13:51:01;30.95;;;11.82;;
25913;SDS011;13718;50.922;5.346;2022-10-31T13:53:36;35.63;;;11.30;;
25913;SDS011;13718;50.922;5.346;2022-10-31T13:58:34;29.73;;;12.63;;
25913;SDS011;13718;50.922;5.346;2022-10-31T14:01:03;24.80;;;11.50;;
25913;SDS011;13718;50.922;5.346;2022-10-31T14:03:47;32.60;;;11.75;;
25913;SDS011;13718;50.922;5.346;2022-10-31T14:06:23;31.40;;;12.10;;
25913;SDS011;13718;50.922;5.346;2022-10-31T14:09:04;34.15;;;12.52;;
25913;SDS011;13718;50.922;5.346;2022-10-31T14:11:31;25.30;;;11.85;;
25913;SDS011;13718;50.922;5.346;2022-10-31T14:13:57;26.08;;;11.40;;
25913;SDS011;13718;50.922;5.346;2022-10-31T14:16:25;35.50;;;12.25;;
25913;SDS011;13718;50.922;5.346;2022-10-31T14:19:04;29.38;;;12.30;;
25913;SDS011;13718;50.922;5.346;2022-10-31T14:21:48;31.02;;;13.13;;
25913;SDS011;13718;50.922;5.346;2022-10-31T14:29:22;41.15;;;13.43;;
25913;SDS011;13718;50.922;5.346;2022-10-31T14:31:53;25.65;;;11.43;;
25913;SDS011;13718;50.922;5.346;2022-10-31T14:34:33;31.58;;;12.40;;
25913;SDS011;13718;50.922;5.346;2022-10-31T14:50:57;33.63;;;12.65;;
25913;SDS011;13718;50.922;5.346;2022-10-31T14:53:34;36.40;;;12.65;;
25913;SDS011;13718;50.922;5.346;2022-10-31T14:56:01;37.95;;;12.82;;
25913;SDS011;13718;50.922;5.346;2022-10-31T15:01:03;36.92;;;12.20;;
25913;SDS011;13718;50.922;5.346;2022-10-31T15:05:59;35.63;;;11.00;;
25913;SDS011;13718;50.922;5.346;2022-10-31T15:08:31;29.60;;;11.25;;
25913;SDS011;13718;50.922;5.346;2022-10-31T15:11:10;28.35;;;12.07;;
25913;SDS011;13718;50.922;5.346;2022-10-31T15:13:56;29.15;;;11.43;;
25913;SDS011;13718;50.922;5.346;2022-10-31T15:16:24;32.75;;;12.18;;
25913;SDS011;13718;50.922;5.346;2022-10-31T15:19:10;27.00;;;11.15;;
25913;SDS011;13718;50.922;5.346;2022-10-31T15:21:42;34.63;;;10.55;;
25913;SDS011;13718;50.922;5.346;2022-10-31T15:24:11;31.67;;;11.13;;
25913;SDS011;13718;50.922;5.346;2022-10-31T15:26:43;30.10;;;11.15;;
25913;SDS011;13718;50.922;5.346;2022-10-31T15:29:14;28.80;;;11.55;;
25913;SDS011;13718;50.922;5.346;2022-10-31T15:31:57;26.48;;;11.10;;
25913;SDS011;13718;50.922;5.346;2022-10-31T15:37:09;20.90;;;8.63;;
25913;SDS011;13718;50.922;5.346;2022-10-31T15:39:37;21.00;;;8.82;;
25913;SDS011;13718;50.922;5.346;2022-10-31T15:42:03;25.55;;;9.48;;
25913;SDS011;13718;50.922;5.346;2022-10-31T15:44:33;18.55;;;7.10;;
25913;SDS011;13718;50.922;5.346;2022-10-31T15:47:04;20.42;;;5.75;;
25913;SDS011;13718;50.922;5.346;2022-10-31T15:49:38;17.90;;;5.47;;
25913;SDS011;13718;50.922;5.346;2022-10-31T15:57:26;16.30;;;4.72;;
25913;SDS011;13718;50.922;5.346;2022-10-31T15:59:52;11.73;;;3.92;;
25913;SDS011;13718;50.922;5.346;2022-10-31T16:02:23;13.93;;;4.68;;
25913;SDS011;13718;50.922;5.346;2022-10-31T16:04:54;14.77;;;4.00;;
25913;SDS011;13718;50.922;5.346;2022-10-31T16:07:22;10.57;;;3.80;;
25913;SDS011;13718;50.922;5.346;2022-10-31T16:09:49;19.20;;;3.97;;
25913;SDS011;13718;50.922;5.346;2022-10-31T16:12:22;14.82;;;4.45;;
25913;SDS011;13718;50.922;5.346;2022-10-31T16:14:50;15.32;;;4.38;;
25913;SDS011;13718;50.922;5.346;2022-10-31T16:17:19;13.45;;;4.13;;
25913;SDS011;13718;50.922;5.346;2022-10-31T16:22:18;21.08;;;4.78;;
25913;SDS011;13718;50.922;5.346;2022-10-31T16:27:23;15.20;;;4.20;;
25913;SDS011;13718;50.922;5.346;2022-10-31T16:29:53;23.65;;;3.95;;
25913;SDS011;13718;50.922;5.346;2022-10-31T16:32:34;17.60;;;4.00;;
25913;SDS011;13718;50.922;5.346;2022-10-31T16:37:37;15.52;;;4.28;;
25913;SDS011;13718;50.922;5.346;2022-10-31T16:40:04;17.27;;;4.68;;
25913;SDS011;13718;50.922;5.346;2022-10-31T16:42:30;14.68;;;4.43;;
25913;SDS011;13718;50.922;5.346;2022-10-31T16:44:55;15.60;;;4.82;;
25913;SDS011;13718;50.922;5.346;2022-10-31T16:47:21;13.63;;;4.30;;
25913;SDS011;13718;50.922;5.346;2022-10-31T16:49:47;14.98;;;4.50;;
25913;SDS011;13718;50.922;5.346;2022-10-31T16:52:14;13.65;;;4.20;;
25913;SDS011;13718;50.922;5.346;2022-10-31T16:54:40;15.75;;;5.00;;
25913;SDS011;13718;50.922;5.346;2022-10-31T16:57:06;16.52;;;5.30;;
25913;SDS011;13718;50.922;5.346;2022-10-31T16:59:42;13.27;;;4.07;;
25913;SDS011;13718;50.922;5.346;2022-10-31T17:02:11;11.18;;;3.40;;
25913;SDS011;13718;50.922;5.346;2022-10-31T17:04:39;12.13;;;4.07;;
25913;SDS011;13718;50.922;5.346;2022-10-31T17:07:05;11.45;;;3.80;;
25913;SDS011;13718;50.922;5.346;2022-10-31T17:09:30;16.35;;;4.28;;
25913;SDS011;13718;50.922;5.346;2022-10-31T17:11:56;13.07;;;4.13;;
25913;SDS011;13718;50.922;5.346;2022-10-31T17:14:22;15.30;;;4.22;;
25913;SDS011;13718;50.922;5.346;2022-10-31T17:16:47;8.65;;;3.55;;
25913;SDS011;13718;50.922;5.346;2022-10-31T17:19:13;19.63;;;4.22;;
25913;SDS011;13718;50.922;5.346;2022-10-31T17:21:39;9.55;;;3.95;;
25913;SDS011;13718;50.922;5.346;2022-10-31T17:24:05;12.93;;;4.22;;
25913;SDS011;13718;50.922;5.346;2022-10-31T17:26:31;14.75;;;4.35;;